createdAt,value
2022-08-07T00:03:05.237Z,101370.78
2022-08-07T00:07:09.564Z,101372.28
2022-08-07T00:11:11.717Z,101374.63
2022-08-07T00:15:22.198Z,101363.41
2022-08-07T00:19:34.237Z,101364.81
2022-08-07T00:23:51.354Z,101384.00
2022-08-07T00:27:56.538Z,101382.66
2022-08-07T00:32:02.334Z,101386.16
2022-08-07T00:36:06.585Z,101381.78
2022-08-07T00:40:10.930Z,101393.44
2022-08-07T00:44:16.676Z,101398.78
2022-08-07T00:48:19.603Z,101409.84
2022-08-07T00:52:33.813Z,101410.19
2022-08-07T00:56:39.081Z,101424.22
2022-08-07T01:00:53.968Z,101415.97
2022-08-07T01:04:59.387Z,101419.63
2022-08-07T01:09:02.987Z,101425.31
2022-08-07T01:13:06.014Z,101421.38
2022-08-07T01:17:10.485Z,101429.19
2022-08-07T01:21:25.960Z,101430.28
2022-08-07T01:25:53.543Z,101434.13
2022-08-07T01:29:55.593Z,101434.22
2022-08-07T01:33:59.665Z,101427.41
2022-08-07T01:38:09.290Z,101424.63
2022-08-07T01:42:40.234Z,101423.31
2022-08-07T01:46:41.358Z,101436.41
2022-08-07T01:50:50.123Z,101434.75
2022-08-07T01:54:56.461Z,101431.09
2022-08-07T01:59:17.798Z,101435.81
2022-08-07T02:03:32.003Z,101440.94
2022-08-07T02:07:52.390Z,101425.66
2022-08-07T02:12:17.600Z,101427.97
2022-08-07T02:16:33.044Z,101427.91
2022-08-07T02:20:37.362Z,101422.22
2022-08-07T02:24:46.063Z,101419.94
2022-08-07T02:28:52.933Z,101422.38
2022-08-07T02:33:03.698Z,101418.81
2022-08-07T02:37:14.323Z,101432.22
2022-08-07T02:41:21.647Z,101437.78
2022-08-07T02:45:58.462Z,101436.94
2022-08-07T02:49:58.284Z,101438.63
2022-08-07T02:54:10.607Z,101441.53
2022-08-07T02:58:21.647Z,101446.38
2022-08-07T03:02:27.189Z,101447.84
2022-08-07T03:06:33.330Z,101439.81
2022-08-07T03:10:41.059Z,101440.19
2022-08-07T03:14:52.033Z,101439.59
2022-08-07T03:18:55.832Z,101444.78
2022-08-07T03:22:59.853Z,101450.03
2022-08-07T03:27:04.985Z,101453.56
2022-08-07T03:31:24.728Z,101448.59
2022-08-07T03:35:50.672Z,101450.03
2022-08-07T03:39:59.902Z,101451.81
2022-08-07T03:44:16.622Z,101459.84
2022-08-07T03:48:26.040Z,101466.25
2022-08-07T03:52:33.309Z,101468.81
2022-08-07T03:56:40.777Z,101459.88
2022-08-07T04:01:07.575Z,101479.56
2022-08-07T04:05:14.806Z,101477.91
2022-08-07T04:09:19.425Z,101478.84
2022-08-07T04:14:33.256Z,101489.50
2022-08-07T04:18:56.708Z,101483.28
2022-08-07T04:22:23.062Z,101486.88
2022-08-07T04:26:28.604Z,101488.47
2022-08-07T04:30:39.527Z,101472.22
2022-08-07T04:34:56.425Z,101471.88
2022-08-07T04:38:59.007Z,101464.69
2022-08-07T04:43:03.481Z,101474.22
2022-08-07T04:48:02.140Z,101478.44
2022-08-07T04:52:27.559Z,101478.16
2022-08-07T04:58:12.483Z,101469.38
2022-08-07T05:01:18.295Z,101469.44
2022-08-07T05:05:52.651Z,101475.59
2022-08-07T05:10:17.936Z,101470.75
2022-08-07T05:14:53.825Z,101468.31
2022-08-07T05:19:03.840Z,101465.53
2022-08-07T05:23:23.202Z,101470.75
2022-08-07T05:28:16.246Z,101481.00
2022-08-07T05:32:00.033Z,101494.34
2022-08-07T05:36:12.303Z,101490.38
2022-08-07T05:40:28.799Z,101505.31
2022-08-07T05:44:35.575Z,101534.03
2022-08-07T05:48:58.353Z,101490.75
2022-08-07T05:53:04.978Z,101510.00
2022-08-07T05:57:09.811Z,101539.66
2022-08-07T06:01:13.765Z,101533.66
2022-08-07T06:05:25.850Z,101574.00
2022-08-07T06:09:44.781Z,101559.09
2022-08-07T06:14:12.257Z,101576.06
2022-08-07T06:18:13.919Z,101571.75
2022-08-07T06:22:23.493Z,101600.97
2022-08-07T06:26:33.771Z,101595.44
2022-08-07T06:30:42.697Z,101603.09
2022-08-07T06:34:53.499Z,101601.66
2022-08-07T06:40:12.502Z,101607.59
2022-08-07T06:43:23.967Z,101621.84
2022-08-07T06:47:57.140Z,101620.03
2022-08-07T06:52:07.413Z,101633.94
2022-08-07T06:56:15.752Z,101627.31
2022-08-07T07:00:22.325Z,101635.03
2022-08-07T07:04:32.327Z,101629.56
2022-08-07T07:08:39.904Z,101629.22
2022-08-07T07:13:06.944Z,101630.22
2022-08-07T07:17:18.998Z,101630.69
2022-08-07T07:22:04.066Z,101633.25
2022-08-07T07:26:33.052Z,101638.13
2022-08-07T07:30:26.583Z,101632.69
2022-08-07T07:34:39.569Z,101629.31
2022-08-07T07:38:45.951Z,101633.22
2022-08-07T07:42:56.887Z,101626.78
2022-08-07T07:47:16.024Z,101624.00
2022-08-07T07:51:27.655Z,101623.19
2022-08-07T07:55:37.594Z,101620.34
2022-08-07T07:59:52.911Z,101621.81
2022-08-07T08:04:11.019Z,101622.78
2022-08-07T08:08:35.291Z,101623.50
2022-08-07T08:12:51.990Z,101619.91
2022-08-07T08:17:55.980Z,101620.25
2022-08-07T08:21:55.758Z,101613.75
2022-08-07T08:26:25.438Z,101627.06
2022-08-07T08:30:29.733Z,101626.94
2022-08-07T08:34:37.134Z,101624.16
2022-08-07T08:38:44.615Z,101632.03
2022-08-07T08:42:51.571Z,101629.31
2022-08-07T08:47:09.954Z,101624.75
2022-08-07T08:52:00.883Z,101630.81
2022-08-07T08:56:24.576Z,101631.28
2022-08-07T09:00:33.319Z,101619.75
2022-08-07T09:05:00.668Z,101615.59
2022-08-07T09:09:43.500Z,101621.44
2022-08-07T09:14:14.754Z,101614.09
2022-08-07T09:19:03.620Z,101614.53
2022-08-07T09:24:30.793Z,101607.28
2022-08-07T09:30:01.600Z,101604.63
2022-08-07T09:33:16.848Z,101607.50
2022-08-07T09:37:54.098Z,101597.38
2022-08-07T09:42:33.626Z,101600.28
2022-08-07T09:47:49.520Z,101596.59
2022-08-07T09:52:15.509Z,101584.00
2022-08-07T09:56:37.363Z,101577.53
2022-08-07T10:01:01.863Z,101574.19
2022-08-07T10:06:00.148Z,101569.13
2022-08-07T10:10:30.011Z,101569.78
2022-08-07T10:15:00.604Z,101569.44
2022-08-07T10:19:21.996Z,101562.19
2022-08-07T10:24:05.311Z,101555.06
2022-08-07T10:28:36.978Z,101553.75
2022-08-07T10:32:59.617Z,101551.59
2022-08-07T10:37:26.476Z,101557.34
2022-08-07T10:42:00.456Z,101556.13
2022-08-07T10:46:30.340Z,101546.13
2022-08-07T10:50:50.422Z,101553.56
2022-08-07T10:55:20.918Z,101548.06
2022-08-07T10:59:47.720Z,101537.66
2022-08-07T11:04:16.568Z,101538.94
2022-08-07T11:08:43.542Z,101538.47
2022-08-07T11:13:01.643Z,101532.72
2022-08-07T11:17:11.447Z,101526.94
2022-08-07T11:21:32.097Z,101525.97
2022-08-07T11:25:50.335Z,101527.09
2022-08-07T11:30:18.169Z,101533.00
2022-08-07T11:34:31.701Z,101528.09
2022-08-07T11:38:50.632Z,101511.75
2022-08-07T11:43:15.584Z,101514.72
2022-08-07T11:47:38.900Z,101506.69
2022-08-07T11:52:29.289Z,101511.75
2022-08-07T11:56:56.213Z,101511.59
2022-08-07T12:01:22.121Z,101502.91
2022-08-07T12:05:47.233Z,101507.66
2022-08-07T12:10:05.820Z,101491.72
2022-08-07T12:14:19.149Z,101486.38
2022-08-07T12:18:35.326Z,101488.06
2022-08-07T12:22:56.428Z,101490.47
2022-08-07T12:27:28.104Z,101482.59
2022-08-07T12:32:04.843Z,101491.44
2022-08-07T12:36:11.161Z,101484.91
2022-08-07T12:40:46.768Z,101481.06
2022-08-07T12:44:46.073Z,101486.44
2022-08-07T12:48:57.690Z,101469.63
2022-08-07T12:53:05.300Z,101471.97
2022-08-07T12:57:27.714Z,101474.38
2022-08-07T13:02:00.158Z,101474.41
2022-08-07T13:06:27.705Z,101475.47
2022-08-07T13:10:59.821Z,101457.16
2022-08-07T13:15:23.775Z,101463.88
2022-08-07T13:19:50.171Z,101462.03
2022-08-07T13:24:05.464Z,101452.00
2022-08-07T13:28:24.309Z,101443.00
2022-08-07T13:32:41.215Z,101444.69
2022-08-07T13:36:59.357Z,101449.38
2022-08-07T13:41:20.987Z,101442.63
2022-08-07T13:46:11.069Z,101434.31
2022-08-07T13:50:33.801Z,101438.75
2022-08-07T13:54:16.617Z,101433.41
2022-08-07T13:58:56.073Z,101432.44
2022-08-07T14:03:01.195Z,101416.31
2022-08-07T14:07:09.476Z,101419.28
2022-08-07T14:11:18.197Z,101414.31
2022-08-07T14:15:31.895Z,101417.59
2022-08-07T14:20:43.675Z,101413.88
2022-08-07T14:24:14.914Z,101401.84
2022-08-07T14:28:19.198Z,101406.50
2022-08-07T14:32:24.926Z,101401.75
2022-08-07T14:36:28.875Z,101398.25
2022-08-07T14:40:35.369Z,101390.88
2022-08-07T14:44:49.896Z,101387.03
2022-08-07T14:48:56.699Z,101382.75
2022-08-07T14:57:55.247Z,101370.03
2022-08-07T15:01:51.457Z,101372.81
2022-08-07T15:06:03.740Z,101366.69
2022-08-07T15:10:11.250Z,101369.69
2022-08-07T15:14:20.904Z,101370.59
2022-08-07T15:22:58.298Z,101375.34
2022-08-07T15:27:11.438Z,101363.47
2022-08-07T15:32:01.676Z,101367.97
2022-08-07T15:36:02.223Z,101352.63
2022-08-07T15:40:11.297Z,101355.94
2022-08-07T15:44:20.810Z,101355.34
2022-08-07T15:48:29.817Z,101350.75
2022-08-07T15:52:36.427Z,101346.75
2022-08-07T15:56:41.883Z,101347.75
2022-08-07T16:00:46.571Z,101345.00
2022-08-07T16:04:55.043Z,101338.47
2022-08-07T16:09:03.617Z,101350.34
2022-08-07T16:13:17.647Z,101345.03
2022-08-07T16:18:01.374Z,101344.94
2022-08-07T16:22:54.877Z,101343.25
2022-08-07T16:27:40.576Z,101339.47
2022-08-07T16:32:34.903Z,101333.72
2022-08-07T16:37:02.068Z,101340.72
2022-08-07T16:41:54.322Z,101344.50
2022-08-07T16:47:06.655Z,101340.47
2022-08-07T16:51:20.424Z,101341.97
2022-08-07T16:55:47.275Z,101343.81
2022-08-07T17:00:16.568Z,101341.41
2022-08-07T17:06:01.452Z,101343.72
2022-08-07T17:10:06.851Z,101351.03
2022-08-07T17:14:49.292Z,101350.81
2022-08-07T17:18:57.669Z,101355.59
2022-08-07T17:23:46.204Z,101351.56
2022-08-07T17:28:09.330Z,101362.41
2022-08-07T17:32:53.450Z,101363.16
2022-08-07T17:37:14.417Z,101366.84
2022-08-07T17:42:04.129Z,101361.81
2022-08-07T17:46:34.209Z,101360.84
2022-08-07T17:50:52.550Z,101369.84
2022-08-07T17:55:12.906Z,101370.31
2022-08-07T17:59:25.662Z,101359.81
2022-08-07T18:04:16.232Z,101365.84
2022-08-07T18:09:01.727Z,101356.75
2022-08-07T18:13:20.554Z,101351.28
2022-08-07T18:18:33.105Z,101338.34
2022-08-07T18:22:05.340Z,101325.09
2022-08-07T18:26:14.857Z,101324.97
2022-08-07T18:30:31.944Z,101311.53
2022-08-07T18:35:01.400Z,101321.25
2022-08-07T18:40:06.373Z,101306.09
2022-08-07T18:44:10.398Z,101293.50
2022-08-07T18:50:05.908Z,101291.50
2022-08-07T18:53:09.945Z,101285.06
2022-08-07T18:57:40.169Z,101282.69
2022-08-07T19:02:19.351Z,101283.09
2022-08-07T19:06:41.595Z,101269.03
2022-08-07T19:10:57.017Z,101272.72
2022-08-07T19:16:03.577Z,101258.81
2022-08-07T19:19:58.865Z,101268.78
2022-08-07T19:24:07.598Z,101267.63
2022-08-07T19:28:57.821Z,101264.72
2022-08-07T19:32:45.435Z,101265.91
2022-08-07T19:36:53.643Z,101263.09
2022-08-07T19:41:03.074Z,101256.25
2022-08-07T19:45:09.919Z,101265.94
2022-08-07T19:49:56.660Z,101261.09
2022-08-07T19:54:33.669Z,101265.72
2022-08-07T19:58:28.276Z,101262.75
2022-08-07T20:02:53.781Z,101266.59
2022-08-07T20:06:57.317Z,101271.09
2022-08-07T20:11:09.929Z,101264.53
2022-08-07T20:15:22.384Z,101269.63
2022-08-07T20:19:47.670Z,101273.31
2022-08-07T20:24:03.905Z,101275.13
2022-08-07T20:28:15.023Z,101273.81
2022-08-07T20:32:22.950Z,101276.38
2022-08-07T20:36:32.503Z,101275.34
2022-08-07T20:40:43.755Z,101278.47
2022-08-07T20:44:54.171Z,101282.63
2022-08-07T20:49:54.419Z,101286.75
2022-08-07T20:53:25.948Z,101293.28
2022-08-07T20:58:02.276Z,101289.50
2022-08-07T21:02:35.253Z,101292.25
2022-08-07T21:06:46.047Z,101284.88
2022-08-07T21:11:02.597Z,101281.84
2022-08-07T21:15:18.694Z,101284.50
2022-08-07T21:19:32.440Z,101293.06
2022-08-07T21:24:06.191Z,101291.72
2022-08-07T21:28:49.297Z,101295.22
2022-08-07T21:33:03.520Z,101291.72
2022-08-07T21:37:57.445Z,101301.91
2022-08-07T21:46:46.479Z,101300.28
2022-08-07T21:51:00.965Z,101312.44
2022-08-07T21:55:03.967Z,101309.72
2022-08-07T22:00:05.008Z,101305.59
2022-08-07T22:04:13.935Z,101310.88
2022-08-07T22:08:27.970Z,101323.38
2022-08-07T22:13:03.055Z,101314.03
2022-08-07T22:17:11.442Z,101322.88
2022-08-07T22:22:02.103Z,101323.22
2022-08-07T22:26:13.550Z,101317.69
2022-08-07T22:30:21.581Z,101327.91
2022-08-07T22:34:49.759Z,101333.59
2022-08-07T22:39:04.595Z,101340.94
2022-08-07T22:43:18.085Z,101330.63
2022-08-07T22:47:32.795Z,101320.25
2022-08-07T22:51:57.291Z,101323.06
2022-08-07T22:56:09.125Z,101333.28
2022-08-07T23:00:28.506Z,101336.25
2022-08-07T23:04:58.452Z,101335.44
2022-08-07T23:10:05.863Z,101330.00
2022-08-07T23:14:40.611Z,101328.88
2022-08-07T23:19:52.176Z,101338.81
2022-08-07T23:24:29.112Z,101335.59
2022-08-07T23:28:56.446Z,101346.63
2022-08-07T23:34:36.300Z,101349.03
2022-08-07T23:38:08.210Z,101355.47
2022-08-07T23:42:15.712Z,101362.22
2022-08-07T23:46:52.260Z,101356.50
2022-08-07T23:51:00.791Z,101357.25
2022-08-07T23:55:51.970Z,101345.75
